createdAt,value
2023-04-16T00:01:59.518Z,99389.53
2023-04-16T00:04:26.551Z,99388.84
2023-04-16T00:06:53.428Z,99395.53
2023-04-16T00:09:20.379Z,99390.81
2023-04-16T00:11:47.267Z,99391.34
2023-04-16T00:14:14.137Z,99388.13
2023-04-16T00:16:41.008Z,99385.06
2023-04-16T00:19:08.123Z,99383.13
2023-04-16T00:21:35.204Z,99386.47
2023-04-16T00:24:02.210Z,99382.69
2023-04-16T00:26:29.047Z,99386.31
2023-04-16T00:28:56.226Z,99384.91
2023-04-16T00:31:33.478Z,99385.06
2023-04-16T00:34:01.095Z,99383.50
2023-04-16T00:36:28.551Z,99383.06
2023-04-16T00:38:56.858Z,99382.09
2023-04-16T00:41:24.065Z,99385.00
2023-04-16T00:43:51.734Z,99382.88
2023-04-16T00:46:23.990Z,99383.59
2023-04-16T00:48:52.998Z,99380.28
2023-04-16T00:51:22.929Z,99385.97
2023-04-16T00:53:49.954Z,99389.19
2023-04-16T00:56:17.767Z,99372.16
2023-04-16T00:58:45.075Z,99386.97
2023-04-16T01:01:14.481Z,99384.47
2023-04-16T01:03:48.456Z,99382.94
2023-04-16T01:06:17.548Z,99392.75
2023-04-16T01:08:45.252Z,99383.78
2023-04-16T01:11:12.264Z,99377.91
2023-04-16T01:13:39.801Z,99380.56
2023-04-16T01:16:08.616Z,99384.22
2023-04-16T01:18:36.635Z,99388.00
2023-04-16T01:21:04.157Z,99381.53
2023-04-16T01:23:31.761Z,99371.34
2023-04-16T01:25:58.603Z,99376.94
2023-04-16T01:28:25.596Z,99378.75
2023-04-16T01:30:52.572Z,99365.50
2023-04-16T01:33:28.338Z,99375.81
2023-04-16T01:35:55.380Z,99375.00
2023-04-16T01:38:22.219Z,99374.00
2023-04-16T01:40:49.145Z,99373.31
2023-04-16T01:43:16.140Z,99370.50
2023-04-16T01:45:43.011Z,99378.63
2023-04-16T01:48:12.166Z,99354.84
2023-04-16T01:50:39.050Z,99373.69
2023-04-16T01:53:05.978Z,99372.69
2023-04-16T01:55:34.505Z,99376.16
2023-04-16T01:58:01.388Z,99374.09
2023-04-16T02:00:32.475Z,99371.69
2023-04-16T02:02:59.899Z,99366.06
2023-04-16T02:05:28.223Z,99359.94
2023-04-16T02:07:55.146Z,99358.25
2023-04-16T02:10:22.304Z,99358.38
2023-04-16T02:12:49.657Z,99365.94
2023-04-16T02:15:16.521Z,99358.25
2023-04-16T02:17:44.065Z,99358.94
2023-04-16T02:20:11.510Z,99346.63
2023-04-16T02:22:44.837Z,99363.72
2023-04-16T02:25:14.587Z,99361.38
2023-04-16T02:27:43.980Z,99359.00
2023-04-16T02:30:24.459Z,99354.09
2023-04-16T02:32:52.591Z,99358.84
2023-04-16T02:35:20.550Z,99361.66
2023-04-16T02:37:48.065Z,99352.00
2023-04-16T02:40:15.142Z,99353.34
2023-04-16T02:42:42.017Z,99352.00
2023-04-16T02:45:09.717Z,99348.19
2023-04-16T02:47:36.726Z,99344.53
2023-04-16T02:50:04.268Z,99348.41
2023-04-16T02:52:32.437Z,99347.56
2023-04-16T02:55:00.198Z,99351.47
2023-04-16T02:57:27.089Z,99344.47
2023-04-16T02:59:54.088Z,99351.03
2023-04-16T03:02:21.426Z,99354.78
2023-04-16T03:04:48.461Z,99347.09
2023-04-16T03:07:15.334Z,99359.81
2023-04-16T03:09:42.304Z,99359.88
2023-04-16T03:12:09.153Z,99352.28
2023-04-16T03:14:36.276Z,99352.97
2023-04-16T03:17:03.139Z,99359.38
2023-04-16T03:19:30.265Z,99359.09
2023-04-16T03:21:57.073Z,99358.81
2023-04-16T03:24:24.038Z,99357.69
2023-04-16T03:26:50.900Z,99364.38
2023-04-16T03:29:18.422Z,99365.91
2023-04-16T03:31:45.654Z,99367.59
2023-04-16T03:34:12.523Z,99370.28
2023-04-16T03:36:40.807Z,99362.72
2023-04-16T03:39:07.887Z,99368.72
2023-04-16T03:41:36.201Z,99376.09
2023-04-16T03:44:03.398Z,99369.97
2023-04-16T03:46:30.587Z,99365.66
2023-04-16T03:48:57.803Z,99364.16
2023-04-16T03:51:25.220Z,99373.41
2023-04-16T03:53:52.390Z,99367.34
2023-04-16T03:56:19.577Z,99377.00
2023-04-16T03:58:46.564Z,99381.59
2023-04-16T04:01:13.473Z,99371.78
2023-04-16T04:03:40.453Z,99378.53
2023-04-16T04:06:10.542Z,99375.56
2023-04-16T04:08:37.358Z,99376.44
2023-04-16T04:11:05.227Z,99376.72
2023-04-16T04:13:33.962Z,99384.38
2023-04-16T04:16:01.072Z,99383.34
2023-04-16T04:18:28.930Z,99380.81
2023-04-16T04:20:55.922Z,99388.91
2023-04-16T04:23:27.067Z,99386.25
2023-04-16T04:25:54.054Z,99391.03
2023-04-16T04:28:21.234Z,99395.06
2023-04-16T04:30:48.291Z,99388.91
2023-04-16T04:33:15.230Z,99388.72
2023-04-16T04:35:42.552Z,99395.94
2023-04-16T04:38:35.583Z,99384.41
2023-04-16T04:41:09.126Z,99388.28
2023-04-16T04:43:38.030Z,99391.72
2023-04-16T04:46:08.022Z,99383.06
2023-04-16T04:48:35.511Z,99381.41
2023-04-16T04:51:05.292Z,99385.69
2023-04-16T04:53:32.683Z,99390.28
2023-04-16T04:56:11.126Z,99396.69
2023-04-16T04:58:39.141Z,99389.00
2023-04-16T05:01:06.327Z,99396.53
2023-04-16T05:03:33.360Z,99396.69
2023-04-16T05:06:00.328Z,99392.19
2023-04-16T05:08:27.217Z,99394.13
2023-04-16T05:10:54.054Z,99388.28
2023-04-16T05:13:20.892Z,99400.81
2023-04-16T05:15:47.705Z,99405.41
2023-04-16T05:18:14.612Z,99407.34
2023-04-16T05:20:41.418Z,99403.69
2023-04-16T05:23:08.257Z,99401.56
2023-04-16T05:25:35.255Z,99411.44
2023-04-16T05:28:02.059Z,99414.94
2023-04-16T05:30:29.001Z,99404.78
2023-04-16T05:32:56.148Z,99407.19
2023-04-16T05:35:22.998Z,99409.06
2023-04-16T05:37:49.829Z,99404.97
2023-04-16T05:40:16.700Z,99412.56
2023-04-16T05:42:43.480Z,99415.03
2023-04-16T05:45:10.845Z,99406.72
2023-04-16T05:47:37.754Z,99411.59
2023-04-16T05:50:04.875Z,99409.59
2023-04-16T05:52:31.707Z,99411.56
2023-04-16T05:55:01.681Z,99409.34
2023-04-16T05:57:29.834Z,99412.78
2023-04-16T05:59:56.775Z,99399.09
2023-04-16T06:02:23.799Z,99407.44
2023-04-16T06:04:50.844Z,99407.44
2023-04-16T06:07:17.758Z,99394.13
2023-04-16T06:09:45.088Z,99400.31
2023-04-16T06:12:11.993Z,99394.84
2023-04-16T06:14:38.882Z,99399.63
2023-04-16T06:17:05.808Z,99398.09
2023-04-16T06:19:32.651Z,99392.94
2023-04-16T06:21:59.713Z,99392.63
2023-04-16T06:24:26.625Z,99399.28
2023-04-16T06:26:54.508Z,99394.44
2023-04-16T06:29:25.903Z,99404.13
2023-04-16T06:32:00.813Z,99398.53
2023-04-16T06:34:28.517Z,99400.16
2023-04-16T06:36:55.564Z,99393.13
2023-04-16T06:39:22.464Z,99391.84
2023-04-16T06:41:49.628Z,99388.31
2023-04-16T06:44:18.104Z,99388.69
2023-04-16T06:46:45.159Z,99392.78
2023-04-16T06:49:12.426Z,99405.81
2023-04-16T06:51:39.277Z,99405.03
2023-04-16T06:54:06.293Z,99397.38
2023-04-16T06:56:33.124Z,99396.03
2023-04-16T06:59:01.089Z,99398.56
2023-04-16T07:01:28.704Z,99402.03
2023-04-16T07:03:56.015Z,99400.69
2023-04-16T07:06:23.019Z,99401.50
2023-04-16T07:08:49.946Z,99411.00
2023-04-16T07:11:19.157Z,99413.53
2023-04-16T07:13:46.002Z,99403.03
2023-04-16T07:16:12.818Z,99410.72
2023-04-16T07:18:39.653Z,99406.19
2023-04-16T07:21:06.558Z,99412.38
2023-04-16T07:23:33.620Z,99413.75
2023-04-16T07:26:00.925Z,99410.88
2023-04-16T07:28:27.841Z,99415.59
2023-04-16T07:30:54.960Z,99416.25
2023-04-16T07:33:21.905Z,99411.41
2023-04-16T07:35:48.676Z,99414.91
2023-04-16T07:38:16.458Z,99415.09
2023-04-16T07:40:43.425Z,99407.22
2023-04-16T07:43:10.719Z,99403.53
2023-04-16T07:45:37.672Z,99407.41
2023-04-16T07:48:05.627Z,99395.72
2023-04-16T07:50:32.507Z,99397.38
2023-04-16T07:52:59.479Z,99394.03
2023-04-16T07:55:26.454Z,99392.53
2023-04-16T07:57:53.979Z,99396.69
2023-04-16T08:00:20.959Z,99392.03
2023-04-16T08:02:48.090Z,99398.38
2023-04-16T08:05:15.107Z,99392.88
2023-04-16T08:07:41.999Z,99394.69
2023-04-16T08:10:09.311Z,99386.19
2023-04-16T08:12:36.254Z,99389.81
2023-04-16T08:15:03.152Z,99388.66
2023-04-16T08:17:30.192Z,99375.63
2023-04-16T08:19:57.067Z,99377.28
2023-04-16T08:22:23.956Z,99384.47
2023-04-16T08:24:50.893Z,99372.09
2023-04-16T08:27:19.995Z,99365.06
2023-04-16T08:29:48.157Z,99369.22
2023-04-16T08:32:15.100Z,99374.47
2023-04-16T08:34:42.692Z,99369.31
2023-04-16T08:37:10.023Z,99380.47
2023-04-16T08:39:39.273Z,99385.00
2023-04-16T08:42:14.397Z,99387.78
2023-04-16T08:44:47.866Z,99386.69
2023-04-16T08:47:16.525Z,99385.69
2023-04-16T08:49:48.826Z,99392.66
2023-04-16T08:52:20.390Z,99393.00
2023-04-16T08:55:06.333Z,99394.69
2023-04-16T08:57:41.225Z,99391.66
2023-04-16T09:00:09.865Z,99390.34
2023-04-16T09:02:37.368Z,99395.16
2023-04-16T09:05:07.132Z,99400.50
2023-04-16T09:07:34.947Z,99401.34
2023-04-16T09:10:02.026Z,99407.22
2023-04-16T09:12:30.687Z,99400.06
2023-04-16T09:14:59.888Z,99405.88
2023-04-16T09:17:27.334Z,99405.03
2023-04-16T09:19:55.036Z,99390.97
2023-04-16T09:22:21.875Z,99396.63
2023-04-16T09:24:48.718Z,99399.59
2023-04-16T09:27:16.615Z,99397.03
2023-04-16T09:29:43.484Z,99402.19
2023-04-16T09:32:13.403Z,99396.78
2023-04-16T09:35:00.821Z,99390.44
2023-04-16T09:37:30.045Z,99397.81
2023-04-16T09:40:01.442Z,99397.91
2023-04-16T09:42:33.706Z,99397.16
2023-04-16T09:45:03.351Z,99394.00
2023-04-16T09:47:45.568Z,99396.63
2023-04-16T09:50:18.482Z,99395.56
2023-04-16T09:52:49.511Z,99396.53
2023-04-16T09:55:16.492Z,99395.22
2023-04-16T09:57:43.333Z,99384.75
2023-04-16T10:00:11.313Z,99376.50
2023-04-16T10:02:42.705Z,99370.13
2023-04-16T10:05:10.080Z,99368.28
2023-04-16T10:07:37.859Z,99369.13
2023-04-16T10:10:05.527Z,99371.53
2023-04-16T10:12:35.747Z,99368.50
2023-04-16T10:15:02.664Z,99385.94
2023-04-16T10:17:31.433Z,99377.28
2023-04-16T10:19:58.603Z,99375.81
2023-04-16T10:22:26.273Z,99377.13
2023-04-16T10:24:54.894Z,99381.28
2023-04-16T10:27:22.737Z,99383.63
2023-04-16T10:29:50.742Z,99380.66
2023-04-16T10:32:18.735Z,99382.63
2023-04-16T10:34:46.032Z,99388.03
2023-04-16T10:37:18.736Z,99392.34
2023-04-16T10:39:45.791Z,99396.53
2023-04-16T10:42:13.400Z,99397.22
2023-04-16T10:44:43.645Z,99400.69
2023-04-16T10:47:13.141Z,99407.81
2023-04-16T10:49:41.128Z,99421.28
2023-04-16T10:52:10.161Z,99424.78
2023-04-16T10:54:37.268Z,99425.31
2023-04-16T10:57:06.816Z,99427.31
2023-04-16T10:59:35.271Z,99414.25
2023-04-16T11:02:28.587Z,99413.88
2023-04-16T11:04:57.340Z,99412.34
2023-04-16T11:07:50.106Z,99408.19
2023-04-16T11:10:20.088Z,99413.75
2023-04-16T11:12:47.595Z,99411.06
2023-04-16T11:15:16.035Z,99417.44
2023-04-16T11:17:53.384Z,99404.63
2023-04-16T11:20:25.925Z,99406.81
2023-04-16T11:22:56.779Z,99391.44
2023-04-16T11:25:34.320Z,99402.69
2023-04-16T11:28:02.715Z,99399.69
2023-04-16T11:30:34.330Z,99390.34
2023-04-16T11:33:12.159Z,99370.94
2023-04-16T11:35:43.527Z,99385.16
2023-04-16T11:38:10.503Z,99379.28
2023-04-16T11:40:42.568Z,99374.06
2023-04-16T11:43:16.748Z,99365.25
2023-04-16T11:46:10.258Z,99367.19
2023-04-16T11:48:52.623Z,99354.72
2023-04-16T11:51:20.717Z,99349.25
2023-04-16T11:53:53.294Z,99349.81
2023-04-16T11:56:31.412Z,99343.19
2023-04-16T11:59:13.750Z,99341.38
2023-04-16T12:01:42.249Z,99321.47
2023-04-16T12:04:09.631Z,99330.47
2023-04-16T12:06:36.878Z,99340.03
2023-04-16T12:09:26.190Z,99344.47
2023-04-16T12:11:56.693Z,99341.00
2023-04-16T12:14:24.403Z,99334.59
2023-04-16T12:16:51.637Z,99320.56
2023-04-16T12:19:19.102Z,99321.31
2023-04-16T12:21:48.054Z,99321.34
2023-04-16T12:24:21.257Z,99322.16
2023-04-16T12:27:00.251Z,99312.78
2023-04-16T12:29:28.293Z,99308.94
2023-04-16T12:31:59.711Z,99299.38
2023-04-16T12:34:28.976Z,99291.34
2023-04-16T12:37:15.035Z,99288.72
2023-04-16T12:39:43.375Z,99278.91
2023-04-16T12:42:11.528Z,99275.41
2023-04-16T12:44:38.471Z,99272.75
2023-04-16T12:47:05.711Z,99268.00
2023-04-16T12:49:32.652Z,99274.47
2023-04-16T12:51:59.608Z,99274.81
2023-04-16T12:54:29.811Z,99270.44
2023-04-16T12:56:57.519Z,99274.28
2023-04-16T12:59:24.480Z,99274.41
2023-04-16T13:01:51.353Z,99271.69
2023-04-16T13:04:19.224Z,99268.19
2023-04-16T13:06:46.460Z,99270.19
2023-04-16T13:09:13.388Z,99261.16
2023-04-16T13:11:40.202Z,99261.16
2023-04-16T13:14:07.101Z,99245.97
2023-04-16T13:16:33.893Z,99255.56
2023-04-16T13:19:00.752Z,99258.78
2023-04-16T13:21:28.328Z,99255.88
2023-04-16T13:23:55.351Z,99254.72
2023-04-16T13:26:22.286Z,99251.69
2023-04-16T13:28:49.177Z,99252.06
2023-04-16T13:31:20.052Z,99250.63
2023-04-16T13:33:47.118Z,99248.09
2023-04-16T13:36:14.069Z,99258.56
2023-04-16T13:38:42.280Z,99247.53
2023-04-16T13:41:09.072Z,99244.25
2023-04-16T13:43:36.996Z,99254.16
2023-04-16T13:46:04.043Z,99256.06
2023-04-16T13:48:31.159Z,99254.03
2023-04-16T13:50:58.041Z,99254.72
2023-04-16T13:53:24.851Z,99257.63
2023-04-16T13:55:51.946Z,99251.53
2023-04-16T13:58:18.839Z,99253.78
2023-04-16T14:00:45.855Z,99253.13
2023-04-16T14:03:12.701Z,99248.59
2023-04-16T14:05:39.708Z,99249.09
2023-04-16T14:08:10.293Z,99242.88
2023-04-16T14:10:37.224Z,99240.34
2023-04-16T14:13:04.090Z,99235.72
2023-04-16T14:15:30.970Z,99237.25
2023-04-16T14:17:58.167Z,99241.31
2023-04-16T14:20:25.104Z,99235.03
2023-04-16T14:22:51.965Z,99219.75
2023-04-16T14:25:18.854Z,99210.63
2023-04-16T14:27:45.780Z,99221.91
2023-04-16T14:30:12.850Z,99216.16
2023-04-16T14:32:39.812Z,99218.81
2023-04-16T14:35:08.392Z,99218.81
2023-04-16T14:37:36.391Z,99221.97
2023-04-16T14:40:08.690Z,99227.38
2023-04-16T14:42:39.551Z,99240.22
2023-04-16T14:45:07.598Z,99241.50
2023-04-16T14:47:35.140Z,99247.13
2023-04-16T14:50:03.410Z,99245.47
2023-04-16T14:52:33.247Z,99251.66
2023-04-16T14:55:00.142Z,99255.59
2023-04-16T14:57:27.193Z,99260.28
2023-04-16T14:59:53.979Z,99260.75
2023-04-16T15:02:21.559Z,99258.28
2023-04-16T15:04:48.540Z,99264.00
2023-04-16T15:07:15.377Z,99259.75
2023-04-16T15:09:42.186Z,99258.19
2023-04-16T15:12:09.353Z,99251.91
2023-04-16T15:14:36.441Z,99252.47
2023-04-16T15:17:03.479Z,99252.09
2023-04-16T15:19:30.449Z,99257.19
2023-04-16T15:21:57.375Z,99255.94
2023-04-16T15:24:24.679Z,99251.44
2023-04-16T15:26:51.685Z,99248.38
2023-04-16T15:29:18.494Z,99259.59
2023-04-16T15:31:45.460Z,99257.34
2023-04-16T15:34:13.333Z,99250.50
2023-04-16T15:36:40.235Z,99252.44
2023-04-16T15:39:07.070Z,99242.69
2023-04-16T15:41:36.940Z,99252.91
2023-04-16T15:44:03.850Z,99245.59
2023-04-16T15:46:30.715Z,99248.38
2023-04-16T15:48:57.661Z,99246.97
2023-04-16T15:51:24.544Z,99249.88
2023-04-16T15:53:51.621Z,99242.00
2023-04-16T15:56:18.619Z,99249.31
2023-04-16T15:58:45.659Z,99238.31
2023-04-16T16:01:12.541Z,99251.19
2023-04-16T16:03:39.491Z,99246.22
2023-04-16T16:06:08.545Z,99238.06
2023-04-16T16:08:36.158Z,99236.59
2023-04-16T16:11:03.146Z,99246.66
2023-04-16T16:13:30.290Z,99246.38
2023-04-16T16:15:57.214Z,99252.09
2023-04-16T16:18:24.090Z,99256.94
2023-04-16T16:20:52.969Z,99253.09
2023-04-16T16:23:19.820Z,99254.59
2023-04-16T16:25:47.040Z,99264.75
2023-04-16T16:28:14.032Z,99269.44
2023-04-16T16:30:41.355Z,99276.47
2023-04-16T16:33:08.307Z,99269.78
2023-04-16T16:35:35.258Z,99272.97
2023-04-16T16:38:02.226Z,99267.13
2023-04-16T16:40:29.518Z,99253.09
2023-04-16T16:42:56.970Z,99249.94
2023-04-16T16:45:26.130Z,99249.94
2023-04-16T16:47:53.077Z,99248.41
2023-04-16T16:50:20.040Z,99249.56
2023-04-16T16:52:46.969Z,99247.41
2023-04-16T16:55:13.850Z,99250.56
2023-04-16T16:57:41.285Z,99253.94
2023-04-16T17:00:12.002Z,99261.94
2023-04-16T17:02:39.026Z,99258.75
2023-04-16T17:05:06.831Z,99260.59
2023-04-16T17:07:33.996Z,99269.09
2023-04-16T17:10:03.792Z,99267.75
2023-04-16T17:12:32.240Z,99270.91
2023-04-16T17:14:59.228Z,99274.72
2023-04-16T17:17:27.118Z,99275.22
2023-04-16T17:19:54.248Z,99275.38
2023-04-16T17:22:21.759Z,99283.56
2023-04-16T17:24:48.717Z,99289.72
2023-04-16T17:27:15.566Z,99295.03
2023-04-16T17:29:42.522Z,99298.84
2023-04-16T17:32:09.464Z,99296.81
2023-04-16T17:34:36.351Z,99303.69
2023-04-16T17:37:03.189Z,99304.16
2023-04-16T17:39:30.013Z,99297.63
2023-04-16T17:41:58.659Z,99296.88
2023-04-16T17:44:27.462Z,99296.81
2023-04-16T17:46:54.776Z,99317.94
2023-04-16T17:49:21.723Z,99312.03
2023-04-16T17:51:49.054Z,99316.75
2023-04-16T17:54:16.028Z,99318.25
2023-04-16T17:56:42.874Z,99318.91
2023-04-16T17:59:09.809Z,99319.66
2023-04-16T18:01:36.738Z,99318.00
2023-04-16T18:04:03.797Z,99321.25
2023-04-16T18:06:31.108Z,99317.69
2023-04-16T18:08:57.951Z,99324.88
2023-04-16T18:11:24.780Z,99307.53
2023-04-16T18:13:53.797Z,99316.00
2023-04-16T18:16:20.824Z,99315.44
2023-04-16T18:18:47.773Z,99314.09
2023-04-16T18:21:14.634Z,99319.59
2023-04-16T18:23:41.526Z,99319.25
2023-04-16T18:26:09.377Z,99320.41
2023-04-16T18:28:37.361Z,99319.72
2023-04-16T18:31:06.770Z,99320.25
2023-04-16T18:33:54.134Z,99326.03
2023-04-16T18:36:21.277Z,99341.44
2023-04-16T18:39:00.057Z,99325.25
2023-04-16T18:41:28.423Z,99320.31
2023-04-16T18:43:55.494Z,99320.84
2023-04-16T18:46:22.445Z,99325.94
2023-04-16T18:48:49.328Z,99329.25
2023-04-16T18:51:16.676Z,99321.63
2023-04-16T18:53:45.785Z,99318.16
2023-04-16T18:56:13.128Z,99323.69
2023-04-16T18:58:40.071Z,99317.53
2023-04-16T19:01:11.305Z,99318.06
2023-04-16T19:03:38.857Z,99316.13
2023-04-16T19:06:06.467Z,99328.72
2023-04-16T19:08:33.406Z,99327.63
2023-04-16T19:11:00.264Z,99326.25
2023-04-16T19:13:27.204Z,99323.31
2023-04-16T19:16:01.773Z,99321.28
2023-04-16T19:18:28.924Z,99319.28
2023-04-16T19:21:00.603Z,99312.47
2023-04-16T19:23:28.192Z,99317.84
2023-04-16T19:25:57.076Z,99330.50
2023-04-16T19:28:25.239Z,99325.34
2023-04-16T19:30:52.959Z,99321.50
2023-04-16T19:33:20.072Z,99328.06
2023-04-16T19:35:47.381Z,99323.31
2023-04-16T19:38:14.347Z,99327.34
2023-04-16T19:40:44.982Z,99332.78
2023-04-16T19:43:11.957Z,99332.22
2023-04-16T19:45:53.377Z,99328.72
2023-04-16T19:48:20.810Z,99328.81
2023-04-16T19:50:48.169Z,99323.94
2023-04-16T19:53:17.155Z,99325.53
2023-04-16T19:55:44.058Z,99325.97
2023-04-16T19:58:11.073Z,99330.06
2023-04-16T20:00:40.848Z,99329.56
2023-04-16T20:03:08.148Z,99324.94
2023-04-16T20:05:35.326Z,99331.53
2023-04-16T20:08:03.077Z,99324.28
2023-04-16T20:10:31.645Z,99321.31
2023-04-16T20:12:58.810Z,99329.44
2023-04-16T20:15:25.927Z,99319.78
2023-04-16T20:17:53.494Z,99320.63
2023-04-16T20:20:22.737Z,99324.94
2023-04-16T20:22:49.718Z,99327.59
2023-04-16T20:25:19.113Z,99314.63
2023-04-16T20:27:46.319Z,99318.66
2023-04-16T20:30:14.018Z,99313.34
2023-04-16T20:32:40.892Z,99309.88
2023-04-16T20:35:10.808Z,99309.56
2023-04-16T20:37:38.686Z,99303.19
2023-04-16T20:40:09.562Z,99312.09
2023-04-16T20:42:36.536Z,99312.25
2023-04-16T20:45:03.448Z,99308.19
2023-04-16T20:47:30.561Z,99313.66
2023-04-16T20:49:58.216Z,99311.84
2023-04-16T20:52:24.994Z,99310.75
2023-04-16T20:54:52.462Z,99315.09
2023-04-16T20:57:19.422Z,99320.97
2023-04-16T20:59:46.258Z,99312.16
2023-04-16T21:02:13.317Z,99321.38
2023-04-16T21:04:41.322Z,99320.38
2023-04-16T21:07:08.266Z,99315.22
2023-04-16T21:09:35.251Z,99312.41
2023-04-16T21:12:02.119Z,99316.31
2023-04-16T21:14:29.153Z,99319.44
2023-04-16T21:16:56.019Z,99328.47
2023-04-16T21:19:22.893Z,99317.59
2023-04-16T21:21:49.744Z,99319.56
2023-04-16T21:24:16.631Z,99314.09
2023-04-16T21:26:43.447Z,99310.47
2023-04-16T21:29:10.428Z,99311.56
2023-04-16T21:31:37.418Z,99305.16
2023-04-16T21:34:04.215Z,99304.47
2023-04-16T21:36:33.114Z,99301.41
2023-04-16T21:38:59.948Z,99301.25
2023-04-16T21:41:26.830Z,99300.28
2023-04-16T21:43:55.927Z,99290.66
2023-04-16T21:46:23.134Z,99298.47
2023-04-16T21:48:52.515Z,99300.16
2023-04-16T21:51:20.205Z,99296.50
2023-04-16T21:53:56.598Z,99294.13
2023-04-16T21:56:24.476Z,99287.56
2023-04-16T21:58:54.096Z,99295.41
2023-04-16T22:01:20.923Z,99290.91
2023-04-16T22:03:52.234Z,99285.91
2023-04-16T22:06:20.521Z,99291.91
2023-04-16T22:08:49.944Z,99293.88
2023-04-16T22:11:17.020Z,99288.41
2023-04-16T22:13:46.036Z,99287.44
2023-04-16T22:16:12.871Z,99288.97
2023-04-16T22:18:41.162Z,99293.97
2023-04-16T22:21:08.046Z,99291.19
2023-04-16T22:23:34.877Z,99288.81
2023-04-16T22:26:03.093Z,99278.63
2023-04-16T22:28:29.971Z,99282.66
2023-04-16T22:30:57.134Z,99275.00
2023-04-16T22:33:23.928Z,99274.84
2023-04-16T22:35:50.970Z,99273.50
2023-04-16T22:38:17.854Z,99267.88
2023-04-16T22:40:47.616Z,99263.81
2023-04-16T22:43:14.584Z,99270.53
2023-04-16T22:45:41.444Z,99265.38
2023-04-16T22:48:08.699Z,99268.59
2023-04-16T22:50:35.611Z,99272.78
2023-04-16T22:53:02.397Z,99278.50
2023-04-16T22:55:29.168Z,99262.72
2023-04-16T22:57:56.025Z,99263.56
2023-04-16T23:00:22.863Z,99262.47
2023-04-16T23:02:49.783Z,99259.09
2023-04-16T23:05:16.749Z,99261.47
2023-04-16T23:07:43.542Z,99258.69
2023-04-16T23:10:10.937Z,99266.06
2023-04-16T23:12:37.791Z,99267.19
2023-04-16T23:15:06.768Z,99267.88
2023-04-16T23:17:35.074Z,99259.94
2023-04-16T23:20:02.901Z,99265.13
2023-04-16T23:22:29.810Z,99259.38
2023-04-16T23:24:56.758Z,99250.44
2023-04-16T23:27:23.811Z,99252.53
2023-04-16T23:29:50.753Z,99253.06
2023-04-16T23:32:17.718Z,99251.56
2023-04-16T23:34:45.132Z,99247.09
2023-04-16T23:37:12.091Z,99243.19
2023-04-16T23:39:38.961Z,99242.19
2023-04-16T23:42:06.105Z,99238.16
2023-04-16T23:44:33.661Z,99236.91
2023-04-16T23:47:01.013Z,99235.91
2023-04-16T23:49:28.080Z,99228.69
2023-04-16T23:51:54.921Z,99225.88
2023-04-16T23:54:22.242Z,99236.63
2023-04-16T23:56:49.229Z,99233.97
2023-04-16T23:59:16.869Z,99231.31
